Portada
METAR-TAF:

METAR-TAF

Aeroports :

Aiacciu, França

latitud: 41-55N, longitud: 008-48E, altitud: 6 m

Observació

L'informe es va fer fa 22 minuts, a les 23:00 UTC
Vent 3 kt amb direcció variable
Temperatura 21°C
Humitat 78%
Pressió 1017 hPa
Visibilitat 10 km o més
sense núvols per sota de 1500 mi sense presència de cumulonimbus.

METAR: LFKJ 182300Z AUTO VRB03KT CAVOK 21/17 Q1017 NOSIG

Hora: 01:22 (23:22 UTC)

Pronòstic

L'informe es va fer fa 3 hores i 22 minuts, a les 20:00 UTC
Pronòstic vàlid del 18 a les 21 UTC al 19 a les 21 UTC
Vent 6 kt del Nord-Est
Visibilitat 10 km o més
sense núvols per sota de 1500 mi sense presència de cumulonimbus.
Evolucionant progressivament
l' 19 a les 07 UTC al 19 a les 09 UTC
Vent 12 kt del Sud/Sud-Oest
Evolucionant progressivament
l' 19 a les 18 UTC al 19 a les 20 UTC
Vent 3 kt amb direcció variable

TAF: LFKJ 182000Z 1821/1921 05006KT CAVOK BECMG 1907/1909 21012KT BECMG 1918/1920 VRB03KT

Observacions i pronòstics meteorològics de més de 4000 aeroports (METAR i TAF).

Les estacions disponibles són els punts grocs i vermells al mapa.

Posi el ratolí al punt desitjat per veure el nom de l'estació.

Feu clic per veure les observacions i els pronòstics meteorològics.

Per canviar el mapa: feu clic els botons verds amb una creu de color negre per apropar; al botó verd amb un guió per allunyar la imatge; o en les fletxes verdes per a mapes adjacents.


METAR-TAF: